LIPZ/VCE METAR and TAF weather

Enter ICAO airport designator
Station Type Date Time Source
LIPZ METAR 2019/12/16 03:20 UTC NOAA

LIPZ 160320Z 25002KT 6000 NSC 05/04 Q1020 NOSIG


Station Type Date Time Source
LIPZ Decoded METAR 2019/12/16 03:20 UTC NOAA

Venezia / Tessera, Italy (LIPZ) 45-30N 012-20E 6M
Dec 15, 2019 - 10:20 PM EST / 2019.12.16 0320 UTC
Wind: from the WSW (250 degrees) at 2 MPH (2 KT):0
Visibility: 3 mile(s):0
Temperature: 41 F (5 C)
Dew Point: 39 F (4 C)
Relative Humidity: 93%
Pressure (altimeter): 30.12 in. Hg (1020 hPa)
ob: LIPZ 160320Z 25002KT 6000 NSC 05/04 Q1020 NOSIG
cycle: 3

Station Type Date Time Source
LIPZ TAF 2019/12/15 18:21 UTC NOAA

TAF LIPZ 151700Z 1518/1624 VRB05KT CAVOK
BECMG 1520/1522 4000 BR
BECMG 1610/1612 7000
BECMG 1616/1618 4000 BR

Example: see airport list